Aviation Digital Data Service (ADDS)

Output produced by TAFs form (0843 UTC 21 October 2014)
found at http://www.aviationweather.gov/adds/tafs/
 
KRIC 210539Z 2106/2206 21004KT P6SM BKN120 
     FM211500 27007KT P6SM SCT100 BKN200 
     FM212000 29006KT P6SM BKN100 
     FM220000 33005KT P6SM BKN050